sensor_id;sensor_type;location;lat;lon;timestamp;P1;durP1;ratioP1;P2;durP2;ratioP2
70927;SDS011;58587;53.034;18.576;2023-09-12T00:01:20;25.73;;;17.90;;
70927;SDS011;58587;53.034;18.576;2023-09-12T00:03:46;24.25;;;17.27;;
70927;SDS011;58587;53.034;18.576;2023-09-12T00:06:11;24.03;;;17.13;;
70927;SDS011;58587;53.034;18.576;2023-09-12T00:08:36;28.83;;;18.30;;
70927;SDS011;58587;53.034;18.576;2023-09-12T00:11:03;26.83;;;18.27;;
70927;SDS011;58587;53.034;18.576;2023-09-12T00:13:32;27.17;;;18.90;;
70927;SDS011;58587;53.034;18.576;2023-09-12T00:15:58;26.90;;;18.38;;
70927;SDS011;58587;53.034;18.576;2023-09-12T00:18:24;33.03;;;20.13;;
70927;SDS011;58587;53.034;18.576;2023-09-12T00:20:50;28.60;;;19.50;;
70927;SDS011;58587;53.034;18.576;2023-09-12T00:23:16;34.08;;;19.60;;
70927;SDS011;58587;53.034;18.576;2023-09-12T00:25:41;31.60;;;20.60;;
70927;SDS011;58587;53.034;18.576;2023-09-12T00:28:07;29.83;;;20.05;;
70927;SDS011;58587;53.034;18.576;2023-09-12T00:30:32;33.30;;;20.33;;
70927;SDS011;58587;53.034;18.576;2023-09-12T00:32:57;31.73;;;20.10;;
70927;SDS011;58587;53.034;18.576;2023-09-12T00:35:22;29.53;;;20.10;;
70927;SDS011;58587;53.034;18.576;2023-09-12T00:37:48;29.37;;;20.27;;
70927;SDS011;58587;53.034;18.576;2023-09-12T00:40:13;26.47;;;19.13;;
70927;SDS011;58587;53.034;18.576;2023-09-12T00:42:39;24.20;;;17.98;;
70927;SDS011;58587;53.034;18.576;2023-09-12T00:45:04;24.67;;;17.90;;
70927;SDS011;58587;53.034;18.576;2023-09-12T00:47:30;25.27;;;18.40;;
70927;SDS011;58587;53.034;18.576;2023-09-12T00:49:56;27.58;;;19.35;;
70927;SDS011;58587;53.034;18.576;2023-09-12T00:52:26;30.75;;;20.10;;
70927;SDS011;58587;53.034;18.576;2023-09-12T00:54:54;32.50;;;20.73;;
70927;SDS011;58587;53.034;18.576;2023-09-12T00:57:20;31.75;;;19.70;;
70927;SDS011;58587;53.034;18.576;2023-09-12T00:59:47;34.17;;;21.17;;
70927;SDS011;58587;53.034;18.576;2023-09-12T01:02:12;30.48;;;20.35;;
70927;SDS011;58587;53.034;18.576;2023-09-12T01:04:38;32.25;;;21.67;;
70927;SDS011;58587;53.034;18.576;2023-09-12T01:07:04;39.53;;;22.87;;
70927;SDS011;58587;53.034;18.576;2023-09-12T01:09:30;38.47;;;22.95;;
70927;SDS011;58587;53.034;18.576;2023-09-12T01:11:56;32.53;;;20.90;;
70927;SDS011;58587;53.034;18.576;2023-09-12T01:14:22;33.50;;;20.67;;
70927;SDS011;58587;53.034;18.576;2023-09-12T01:16:47;41.87;;;25.20;;
70927;SDS011;58587;53.034;18.576;2023-09-12T01:19:13;52.17;;;28.55;;
70927;SDS011;58587;53.034;18.576;2023-09-12T01:21:48;44.50;;;24.73;;
70927;SDS011;58587;53.034;18.576;2023-09-12T01:27:28;33.33;;;21.08;;
70927;SDS011;58587;53.034;18.576;2023-09-12T01:29:56;29.42;;;20.23;;
70927;SDS011;58587;53.034;18.576;2023-09-12T01:32:23;31.55;;;20.85;;
70927;SDS011;58587;53.034;18.576;2023-09-12T01:34:48;41.67;;;23.60;;
70927;SDS011;58587;53.034;18.576;2023-09-12T01:37:14;43.70;;;23.43;;
70927;SDS011;58587;53.034;18.576;2023-09-12T01:39:40;43.07;;;23.13;;
70927;SDS011;58587;53.034;18.576;2023-09-12T01:42:05;40.50;;;22.13;;
70927;SDS011;58587;53.034;18.576;2023-09-12T01:44:33;31.00;;;20.73;;
70927;SDS011;58587;53.034;18.576;2023-09-12T01:47:02;35.10;;;21.43;;
70927;SDS011;58587;53.034;18.576;2023-09-12T01:49:29;37.15;;;22.42;;
70927;SDS011;58587;53.034;18.576;2023-09-12T01:51:56;31.50;;;20.67;;
70927;SDS011;58587;53.034;18.576;2023-09-12T01:54:24;31.75;;;21.40;;
70927;SDS011;58587;53.034;18.576;2023-09-12T01:56:50;32.15;;;21.27;;
70927;SDS011;58587;53.034;18.576;2023-09-12T01:59:16;34.03;;;21.60;;
70927;SDS011;58587;53.034;18.576;2023-09-12T02:01:41;36.43;;;21.07;;
70927;SDS011;58587;53.034;18.576;2023-09-12T02:04:08;34.75;;;22.15;;
70927;SDS011;58587;53.034;18.576;2023-09-12T02:06:34;34.63;;;21.65;;
70927;SDS011;58587;53.034;18.576;2023-09-12T02:09:00;32.10;;;21.48;;
70927;SDS011;58587;53.034;18.576;2023-09-12T02:11:26;33.43;;;21.27;;
70927;SDS011;58587;53.034;18.576;2023-09-12T02:13:52;34.60;;;21.80;;
70927;SDS011;58587;53.034;18.576;2023-09-12T02:16:17;29.97;;;20.97;;
70927;SDS011;58587;53.034;18.576;2023-09-12T02:18:42;25.83;;;18.57;;
70927;SDS011;58587;53.034;18.576;2023-09-12T02:21:07;28.50;;;19.37;;
70927;SDS011;58587;53.034;18.576;2023-09-12T02:23:33;27.70;;;19.97;;
70927;SDS011;58587;53.034;18.576;2023-09-12T02:25:58;26.10;;;19.48;;
70927;SDS011;58587;53.034;18.576;2023-09-12T02:28:23;26.47;;;19.33;;
70927;SDS011;58587;53.034;18.576;2023-09-12T02:30:49;25.53;;;18.73;;
70927;SDS011;58587;53.034;18.576;2023-09-12T02:33:15;27.02;;;19.85;;
70927;SDS011;58587;53.034;18.576;2023-09-12T02:35:40;25.90;;;18.87;;
70927;SDS011;58587;53.034;18.576;2023-09-12T02:38:05;27.97;;;19.00;;
70927;SDS011;58587;53.034;18.576;2023-09-12T02:40:31;25.73;;;18.90;;
70927;SDS011;58587;53.034;18.576;2023-09-12T02:42:56;25.37;;;18.90;;
70927;SDS011;58587;53.034;18.576;2023-09-12T02:45:21;27.40;;;20.43;;
70927;SDS011;58587;53.034;18.576;2023-09-12T02:47:46;25.70;;;19.63;;
70927;SDS011;58587;53.034;18.576;2023-09-12T02:50:12;28.20;;;20.43;;
70927;SDS011;58587;53.034;18.576;2023-09-12T02:52:37;27.13;;;19.90;;
70927;SDS011;58587;53.034;18.576;2023-09-12T02:55:02;29.87;;;20.57;;
70927;SDS011;58587;53.034;18.576;2023-09-12T02:57:28;31.55;;;20.58;;
70927;SDS011;58587;53.034;18.576;2023-09-12T02:59:54;29.70;;;20.83;;
70927;SDS011;58587;53.034;18.576;2023-09-12T03:02:19;28.00;;;20.47;;
70927;SDS011;58587;53.034;18.576;2023-09-12T03:04:44;33.40;;;23.42;;
70927;SDS011;58587;53.034;18.576;2023-09-12T03:07:09;35.30;;;23.13;;
70927;SDS011;58587;53.034;18.576;2023-09-12T03:09:35;34.33;;;23.03;;
70927;SDS011;58587;53.034;18.576;2023-09-12T03:12:02;31.50;;;22.63;;
70927;SDS011;58587;53.034;18.576;2023-09-12T03:14:28;29.80;;;21.30;;
70927;SDS011;58587;53.034;18.576;2023-09-12T03:16:54;30.27;;;21.20;;
70927;SDS011;58587;53.034;18.576;2023-09-12T03:19:19;27.80;;;20.60;;
70927;SDS011;58587;53.034;18.576;2023-09-12T03:21:44;28.37;;;20.97;;
70927;SDS011;58587;53.034;18.576;2023-09-12T03:24:10;31.90;;;20.27;;
70927;SDS011;58587;53.034;18.576;2023-09-12T03:26:35;31.57;;;21.13;;
70927;SDS011;58587;53.034;18.576;2023-09-12T03:29:01;30.80;;;22.10;;
70927;SDS011;58587;53.034;18.576;2023-09-12T03:31:27;29.10;;;20.53;;
70927;SDS011;58587;53.034;18.576;2023-09-12T03:33:53;29.15;;;20.63;;
70927;SDS011;58587;53.034;18.576;2023-09-12T03:36:19;26.77;;;20.00;;
70927;SDS011;58587;53.034;18.576;2023-09-12T03:38:44;27.27;;;20.83;;
70927;SDS011;58587;53.034;18.576;2023-09-12T03:41:10;37.47;;;23.30;;
70927;SDS011;58587;53.034;18.576;2023-09-12T03:43:36;37.77;;;23.30;;
70927;SDS011;58587;53.034;18.576;2023-09-12T03:46:01;37.50;;;22.88;;
70927;SDS011;58587;53.034;18.576;2023-09-12T03:48:28;31.67;;;21.70;;
70927;SDS011;58587;53.034;18.576;2023-09-12T03:50:55;34.90;;;24.02;;
70927;SDS011;58587;53.034;18.576;2023-09-12T03:53:21;29.80;;;21.55;;
70927;SDS011;58587;53.034;18.576;2023-09-12T03:55:46;30.03;;;21.30;;
70927;SDS011;58587;53.034;18.576;2023-09-12T03:58:11;27.87;;;20.27;;
70927;SDS011;58587;53.034;18.576;2023-09-12T04:00:37;36.47;;;22.97;;
70927;SDS011;58587;53.034;18.576;2023-09-12T04:03:02;37.73;;;23.97;;
70927;SDS011;58587;53.034;18.576;2023-09-12T04:05:28;45.45;;;27.38;;
70927;SDS011;58587;53.034;18.576;2023-09-12T04:07:53;54.97;;;30.77;;
70927;SDS011;58587;53.034;18.576;2023-09-12T04:10:22;53.33;;;28.33;;
70927;SDS011;58587;53.034;18.576;2023-09-12T04:12:47;50.97;;;25.83;;
70927;SDS011;58587;53.034;18.576;2023-09-12T04:15:13;40.80;;;24.43;;
70927;SDS011;58587;53.034;18.576;2023-09-12T04:17:38;34.53;;;21.67;;
70927;SDS011;58587;53.034;18.576;2023-09-12T04:20:04;43.73;;;25.50;;
70927;SDS011;58587;53.034;18.576;2023-09-12T04:22:29;40.45;;;24.25;;
70927;SDS011;58587;53.034;18.576;2023-09-12T04:24:55;35.17;;;23.37;;
70927;SDS011;58587;53.034;18.576;2023-09-12T04:27:20;33.57;;;23.43;;
70927;SDS011;58587;53.034;18.576;2023-09-12T04:29:46;29.90;;;21.37;;
70927;SDS011;58587;53.034;18.576;2023-09-12T04:32:11;31.23;;;21.13;;
70927;SDS011;58587;53.034;18.576;2023-09-12T04:34:37;28.90;;;21.17;;
70927;SDS011;58587;53.034;18.576;2023-09-12T04:37:02;29.92;;;21.00;;
70927;SDS011;58587;53.034;18.576;2023-09-12T04:39:28;28.13;;;21.13;;
70927;SDS011;58587;53.034;18.576;2023-09-12T04:41:53;31.50;;;21.47;;
70927;SDS011;58587;53.034;18.576;2023-09-12T04:44:19;31.67;;;22.40;;
70927;SDS011;58587;53.034;18.576;2023-09-12T04:46:44;34.10;;;22.20;;
70927;SDS011;58587;53.034;18.576;2023-09-12T04:49:09;36.73;;;22.73;;
70927;SDS011;58587;53.034;18.576;2023-09-12T04:51:35;32.47;;;21.67;;
70927;SDS011;58587;53.034;18.576;2023-09-12T04:54:00;29.73;;;21.00;;
70927;SDS011;58587;53.034;18.576;2023-09-12T04:56:25;32.77;;;21.27;;
70927;SDS011;58587;53.034;18.576;2023-09-12T04:58:51;30.10;;;20.30;;
70927;SDS011;58587;53.034;18.576;2023-09-12T05:01:16;33.20;;;21.33;;
70927;SDS011;58587;53.034;18.576;2023-09-12T05:03:42;29.10;;;21.10;;
70927;SDS011;58587;53.034;18.576;2023-09-12T05:06:08;31.88;;;20.60;;
70927;SDS011;58587;53.034;18.576;2023-09-12T05:08:35;36.38;;;22.52;;
70927;SDS011;58587;53.034;18.576;2023-09-12T05:11:00;53.47;;;27.90;;
70927;SDS011;58587;53.034;18.576;2023-09-12T05:13:27;49.20;;;26.65;;
70927;SDS011;58587;53.034;18.576;2023-09-12T05:15:52;45.23;;;25.63;;
70927;SDS011;58587;53.034;18.576;2023-09-12T05:18:18;45.23;;;25.60;;
70927;SDS011;58587;53.034;18.576;2023-09-12T05:20:43;40.90;;;22.93;;
70927;SDS011;58587;53.034;18.576;2023-09-12T05:23:08;34.17;;;22.70;;
70927;SDS011;58587;53.034;18.576;2023-09-12T05:25:34;40.53;;;24.40;;
70927;SDS011;58587;53.034;18.576;2023-09-12T05:27:59;45.00;;;24.97;;
70927;SDS011;58587;53.034;18.576;2023-09-12T05:30:24;34.33;;;21.77;;
70927;SDS011;58587;53.034;18.576;2023-09-12T05:32:50;34.13;;;22.53;;
70927;SDS011;58587;53.034;18.576;2023-09-12T05:35:15;78.93;;;44.57;;
70927;SDS011;58587;53.034;18.576;2023-09-12T05:37:40;67.77;;;41.07;;
70927;SDS011;58587;53.034;18.576;2023-09-12T05:40:06;40.20;;;27.23;;
70927;SDS011;58587;53.034;18.576;2023-09-12T05:42:31;32.90;;;22.52;;
70927;SDS011;58587;53.034;18.576;2023-09-12T05:44:57;34.37;;;22.40;;
70927;SDS011;58587;53.034;18.576;2023-09-12T05:47:22;30.47;;;20.87;;
70927;SDS011;58587;53.034;18.576;2023-09-12T05:49:48;30.98;;;22.15;;
70927;SDS011;58587;53.034;18.576;2023-09-12T05:52:13;31.90;;;22.60;;
70927;SDS011;58587;53.034;18.576;2023-09-12T05:54:39;31.87;;;23.17;;
70927;SDS011;58587;53.034;18.576;2023-09-12T05:57:05;36.80;;;23.67;;
70927;SDS011;58587;53.034;18.576;2023-09-12T05:59:31;33.50;;;23.10;;
70927;SDS011;58587;53.034;18.576;2023-09-12T06:01:56;34.33;;;23.15;;
70927;SDS011;58587;53.034;18.576;2023-09-12T06:04:22;30.27;;;22.90;;
70927;SDS011;58587;53.034;18.576;2023-09-12T06:06:47;34.83;;;22.80;;
70927;SDS011;58587;53.034;18.576;2023-09-12T06:09:12;32.40;;;22.03;;
70927;SDS011;58587;53.034;18.576;2023-09-12T06:11:38;33.27;;;22.33;;
70927;SDS011;58587;53.034;18.576;2023-09-12T06:14:03;30.83;;;22.43;;
70927;SDS011;58587;53.034;18.576;2023-09-12T06:16:29;35.55;;;23.52;;
70927;SDS011;58587;53.034;18.576;2023-09-12T06:18:54;34.50;;;22.70;;
70927;SDS011;58587;53.034;18.576;2023-09-12T06:21:20;35.83;;;23.13;;
70927;SDS011;58587;53.034;18.576;2023-09-12T06:23:46;34.22;;;23.40;;
70927;SDS011;58587;53.034;18.576;2023-09-12T06:26:12;34.78;;;22.80;;
70927;SDS011;58587;53.034;18.576;2023-09-12T06:28:37;36.13;;;23.70;;
70927;SDS011;58587;53.034;18.576;2023-09-12T06:31:03;36.30;;;22.20;;
70927;SDS011;58587;53.034;18.576;2023-09-12T06:33:28;34.97;;;23.20;;
70927;SDS011;58587;53.034;18.576;2023-09-12T06:35:54;37.17;;;23.13;;
70927;SDS011;58587;53.034;18.576;2023-09-12T06:38:20;36.47;;;23.20;;
70927;SDS011;58587;53.034;18.576;2023-09-12T06:40:46;32.53;;;23.52;;
70927;SDS011;58587;53.034;18.576;2023-09-12T06:43:12;33.20;;;22.17;;
70927;SDS011;58587;53.034;18.576;2023-09-12T06:45:39;37.65;;;22.83;;
70927;SDS011;58587;53.034;18.576;2023-09-12T06:48:05;43.25;;;23.55;;
70927;SDS011;58587;53.034;18.576;2023-09-12T06:50:31;32.57;;;22.87;;
70927;SDS011;58587;53.034;18.576;2023-09-12T06:52:56;34.77;;;22.23;;
70927;SDS011;58587;53.034;18.576;2023-09-12T06:55:21;35.23;;;22.47;;
70927;SDS011;58587;53.034;18.576;2023-09-12T06:57:46;33.67;;;21.40;;
70927;SDS011;58587;53.034;18.576;2023-09-12T07:00:12;39.87;;;22.37;;
70927;SDS011;58587;53.034;18.576;2023-09-12T07:02:38;31.52;;;21.60;;
70927;SDS011;58587;53.034;18.576;2023-09-12T07:05:03;31.13;;;21.53;;
70927;SDS011;58587;53.034;18.576;2023-09-12T07:07:29;32.80;;;20.98;;
70927;SDS011;58587;53.034;18.576;2023-09-12T07:09:55;29.95;;;21.15;;
70927;SDS011;58587;53.034;18.576;2023-09-12T07:12:21;31.67;;;20.23;;
70927;SDS011;58587;53.034;18.576;2023-09-12T07:14:46;30.07;;;21.30;;
70927;SDS011;58587;53.034;18.576;2023-09-12T07:17:11;29.17;;;20.53;;
70927;SDS011;58587;53.034;18.576;2023-09-12T07:19:37;31.13;;;20.07;;
70927;SDS011;58587;53.034;18.576;2023-09-12T07:22:02;29.87;;;21.07;;
70927;SDS011;58587;53.034;18.576;2023-09-12T07:24:28;31.73;;;20.83;;
70927;SDS011;58587;53.034;18.576;2023-09-12T07:26:53;36.93;;;21.30;;
70927;SDS011;58587;53.034;18.576;2023-09-12T07:29:19;25.40;;;20.00;;
70927;SDS011;58587;53.034;18.576;2023-09-12T07:31:44;29.98;;;19.58;;
70927;SDS011;58587;53.034;18.576;2023-09-12T07:34:09;30.27;;;19.73;;
70927;SDS011;58587;53.034;18.576;2023-09-12T07:36:37;28.58;;;19.90;;
70927;SDS011;58587;53.034;18.576;2023-09-12T07:39:02;25.50;;;18.93;;
70927;SDS011;58587;53.034;18.576;2023-09-12T07:41:29;26.48;;;19.15;;
70927;SDS011;58587;53.034;18.576;2023-09-12T07:43:55;26.02;;;18.80;;
70927;SDS011;58587;53.034;18.576;2023-09-12T07:46:20;29.47;;;18.43;;
70927;SDS011;58587;53.034;18.576;2023-09-12T07:48:45;29.10;;;19.17;;
70927;SDS011;58587;53.034;18.576;2023-09-12T07:51:14;25.47;;;19.20;;
70927;SDS011;58587;53.034;18.576;2023-09-12T07:53:42;23.60;;;17.48;;
70927;SDS011;58587;53.034;18.576;2023-09-12T07:56:08;22.63;;;16.73;;
70927;SDS011;58587;53.034;18.576;2023-09-12T07:58:35;22.50;;;15.80;;
70927;SDS011;58587;53.034;18.576;2023-09-12T08:01:04;25.65;;;16.45;;
70927;SDS011;58587;53.034;18.576;2023-09-12T08:03:33;23.85;;;16.33;;
70927;SDS011;58587;53.034;18.576;2023-09-12T08:06:00;22.10;;;16.77;;
70927;SDS011;58587;53.034;18.576;2023-09-12T08:08:25;21.15;;;15.30;;
70927;SDS011;58587;53.034;18.576;2023-09-12T08:10:50;20.87;;;16.30;;
70927;SDS011;58587;53.034;18.576;2023-09-12T08:13:16;20.03;;;15.50;;
70927;SDS011;58587;53.034;18.576;2023-09-12T08:15:41;21.07;;;15.20;;
70927;SDS011;58587;53.034;18.576;2023-09-12T08:18:06;25.30;;;15.97;;
70927;SDS011;58587;53.034;18.576;2023-09-12T08:20:32;22.47;;;15.50;;
70927;SDS011;58587;53.034;18.576;2023-09-12T08:22:57;21.50;;;15.40;;
70927;SDS011;58587;53.034;18.576;2023-09-12T08:25:22;22.35;;;15.50;;
70927;SDS011;58587;53.034;18.576;2023-09-12T08:27:49;20.63;;;13.40;;
70927;SDS011;58587;53.034;18.576;2023-09-12T08:30:15;20.20;;;13.50;;
70927;SDS011;58587;53.034;18.576;2023-09-12T08:32:41;22.70;;;13.53;;
70927;SDS011;58587;53.034;18.576;2023-09-12T08:35:09;18.10;;;12.45;;
70927;SDS011;58587;53.034;18.576;2023-09-12T08:37:35;35.15;;;13.85;;
70927;SDS011;58587;53.034;18.576;2023-09-12T08:40:00;28.80;;;14.87;;
70927;SDS011;58587;53.034;18.576;2023-09-12T08:42:26;24.87;;;12.63;;
70927;SDS011;58587;53.034;18.576;2023-09-12T08:44:53;22.92;;;12.15;;
70927;SDS011;58587;53.034;18.576;2023-09-12T08:47:19;19.88;;;10.75;;
70927;SDS011;58587;53.034;18.576;2023-09-12T08:49:47;18.00;;;10.97;;
70927;SDS011;58587;53.034;18.576;2023-09-12T08:52:13;17.33;;;11.85;;
70927;SDS011;58587;53.034;18.576;2023-09-12T08:54:38;17.23;;;11.63;;
70927;SDS011;58587;53.034;18.576;2023-09-12T08:57:04;15.97;;;11.40;;
70927;SDS011;58587;53.034;18.576;2023-09-12T08:59:33;17.33;;;11.55;;
70927;SDS011;58587;53.034;18.576;2023-09-12T09:02:03;17.73;;;10.50;;
70927;SDS011;58587;53.034;18.576;2023-09-12T09:04:32;12.23;;;10.40;;
70927;SDS011;58587;53.034;18.576;2023-09-12T09:07:07;13.82;;;10.60;;
70927;SDS011;58587;53.034;18.576;2023-09-12T09:09:35;15.95;;;11.15;;
70927;SDS011;58587;53.034;18.576;2023-09-12T09:12:01;16.45;;;10.65;;
70927;SDS011;58587;53.034;18.576;2023-09-12T09:14:32;17.27;;;11.20;;
70927;SDS011;58587;53.034;18.576;2023-09-12T09:16:58;12.07;;;9.17;;
70927;SDS011;58587;53.034;18.576;2023-09-12T09:19:48;11.27;;;8.80;;
70927;SDS011;58587;53.034;18.576;2023-09-12T09:22:13;12.60;;;9.50;;
70927;SDS011;58587;53.034;18.576;2023-09-12T09:24:38;11.10;;;9.10;;
70927;SDS011;58587;53.034;18.576;2023-09-12T09:27:04;13.80;;;9.32;;
70927;SDS011;58587;53.034;18.576;2023-09-12T09:29:29;10.30;;;9.20;;
70927;SDS011;58587;53.034;18.576;2023-09-12T09:31:58;12.25;;;9.20;;
70927;SDS011;58587;53.034;18.576;2023-09-12T09:34:26;10.25;;;8.40;;
70927;SDS011;58587;53.034;18.576;2023-09-12T09:36:55;14.37;;;8.30;;
70927;SDS011;58587;53.034;18.576;2023-09-12T09:39:26;10.30;;;8.13;;
70927;SDS011;58587;53.034;18.576;2023-09-12T09:41:56;13.45;;;8.30;;
70927;SDS011;58587;53.034;18.576;2023-09-12T09:44:23;12.25;;;8.30;;
70927;SDS011;58587;53.034;18.576;2023-09-12T09:46:52;13.27;;;7.80;;
70927;SDS011;58587;53.034;18.576;2023-09-12T09:49:20;10.43;;;7.53;;
70927;SDS011;58587;53.034;18.576;2023-09-12T09:51:46;9.68;;;6.90;;
70927;SDS011;58587;53.034;18.576;2023-09-12T09:54:11;8.87;;;7.80;;
70927;SDS011;58587;53.034;18.576;2023-09-12T09:56:47;16.70;;;8.40;;
70927;SDS011;58587;53.034;18.576;2023-09-12T09:59:15;9.40;;;7.70;;
70927;SDS011;58587;53.034;18.576;2023-09-12T10:01:43;9.77;;;7.72;;
70927;SDS011;58587;53.034;18.576;2023-09-12T10:04:12;7.82;;;7.03;;
70927;SDS011;58587;53.034;18.576;2023-09-12T10:06:39;9.00;;;7.60;;
70927;SDS011;58587;53.034;18.576;2023-09-12T10:09:10;8.77;;;7.25;;
70927;SDS011;58587;53.034;18.576;2023-09-12T10:11:38;9.95;;;7.60;;
70927;SDS011;58587;53.034;18.576;2023-09-12T10:14:04;10.10;;;7.45;;
70927;SDS011;58587;53.034;18.576;2023-09-12T10:16:31;11.57;;;7.63;;
70927;SDS011;58587;53.034;18.576;2023-09-12T10:18:58;9.90;;;7.63;;
70927;SDS011;58587;53.034;18.576;2023-09-12T10:21:31;8.43;;;7.20;;
70927;SDS011;58587;53.034;18.576;2023-09-12T10:23:59;9.55;;;7.70;;
70927;SDS011;58587;53.034;18.576;2023-09-12T10:26:25;9.30;;;7.55;;
70927;SDS011;58587;53.034;18.576;2023-09-12T10:28:51;10.50;;;7.60;;
70927;SDS011;58587;53.034;18.576;2023-09-12T10:31:17;10.63;;;6.93;;
70927;SDS011;58587;53.034;18.576;2023-09-12T10:33:44;10.93;;;7.53;;
70927;SDS011;58587;53.034;18.576;2023-09-12T10:36:10;9.53;;;7.43;;
70927;SDS011;58587;53.034;18.576;2023-09-12T10:38:44;10.35;;;7.75;;
70927;SDS011;58587;53.034;18.576;2023-09-12T10:41:11;10.32;;;8.15;;
70927;SDS011;58587;53.034;18.576;2023-09-12T10:43:39;8.67;;;7.77;;
70927;SDS011;58587;53.034;18.576;2023-09-12T10:46:06;9.82;;;8.07;;
70927;SDS011;58587;53.034;18.576;2023-09-12T10:48:32;9.07;;;8.02;;
70927;SDS011;58587;53.034;18.576;2023-09-12T10:51:00;12.10;;;8.10;;
70927;SDS011;58587;53.034;18.576;2023-09-12T10:53:30;10.23;;;7.57;;
70927;SDS011;58587;53.034;18.576;2023-09-12T10:59:29;9.73;;;8.32;;
70927;SDS011;58587;53.034;18.576;2023-09-12T11:01:31;13.80;;;9.35;;
70927;SDS011;58587;53.034;18.576;2023-09-12T11:06:45;10.18;;;9.07;;
70927;SDS011;58587;53.034;18.576;2023-09-12T11:11:46;13.45;;;9.70;;
70927;SDS011;58587;53.034;18.576;2023-09-12T11:14:16;11.93;;;9.98;;
70927;SDS011;58587;53.034;18.576;2023-09-12T11:16:42;10.60;;;9.33;;
70927;SDS011;58587;53.034;18.576;2023-09-12T11:19:12;10.07;;;8.77;;
70927;SDS011;58587;53.034;18.576;2023-09-12T11:21:46;12.40;;;9.20;;
70927;SDS011;58587;53.034;18.576;2023-09-12T11:24:13;10.40;;;9.35;;
70927;SDS011;58587;53.034;18.576;2023-09-12T11:29:19;12.57;;;8.30;;
70927;SDS011;58587;53.034;18.576;2023-09-12T11:31:54;12.75;;;9.43;;
70927;SDS011;58587;53.034;18.576;2023-09-12T11:34:24;11.35;;;9.40;;
70927;SDS011;58587;53.034;18.576;2023-09-12T11:36:54;12.18;;;9.82;;
70927;SDS011;58587;53.034;18.576;2023-09-12T11:39:27;10.20;;;9.02;;
70927;SDS011;58587;53.034;18.576;2023-09-12T11:41:57;10.43;;;9.00;;
70927;SDS011;58587;53.034;18.576;2023-09-12T11:44:24;10.55;;;9.30;;
70927;SDS011;58587;53.034;18.576;2023-09-12T11:46:51;11.27;;;8.75;;
70927;SDS011;58587;53.034;18.576;2023-09-12T11:49:20;10.80;;;9.20;;
70927;SDS011;58587;53.034;18.576;2023-09-12T11:51:46;11.47;;;9.00;;
70927;SDS011;58587;53.034;18.576;2023-09-12T11:54:17;10.43;;;9.35;;
70927;SDS011;58587;53.034;18.576;2023-09-12T11:56:49;10.13;;;9.02;;
70927;SDS011;58587;53.034;18.576;2023-09-12T11:59:21;10.95;;;8.93;;
70927;SDS011;58587;53.034;18.576;2023-09-12T12:01:56;9.80;;;8.55;;
70927;SDS011;58587;53.034;18.576;2023-09-12T12:04:22;10.50;;;8.70;;
70927;SDS011;58587;53.034;18.576;2023-09-12T12:06:50;10.98;;;8.25;;
70927;SDS011;58587;53.034;18.576;2023-09-12T12:09:16;9.27;;;8.30;;
70927;SDS011;58587;53.034;18.576;2023-09-12T12:11:44;10.40;;;7.72;;
70927;SDS011;58587;53.034;18.576;2023-09-12T12:14:16;13.25;;;8.32;;
70927;SDS011;58587;53.034;18.576;2023-09-12T12:16:42;11.77;;;8.57;;
70927;SDS011;58587;53.034;18.576;2023-09-12T12:19:09;11.43;;;8.40;;
70927;SDS011;58587;53.034;18.576;2023-09-12T12:21:36;9.02;;;8.10;;
70927;SDS011;58587;53.034;18.576;2023-09-12T12:24:05;10.88;;;8.32;;
70927;SDS011;58587;53.034;18.576;2023-09-12T12:26:33;10.13;;;8.13;;
70927;SDS011;58587;53.034;18.576;2023-09-12T12:29:03;10.00;;;8.60;;
70927;SDS011;58587;53.034;18.576;2023-09-12T12:31:29;12.15;;;8.35;;
70927;SDS011;58587;53.034;18.576;2023-09-12T12:33:55;10.17;;;8.53;;
70927;SDS011;58587;53.034;18.576;2023-09-12T12:36:21;11.77;;;8.48;;
70927;SDS011;58587;53.034;18.576;2023-09-12T12:38:48;9.70;;;8.80;;
70927;SDS011;58587;53.034;18.576;2023-09-12T12:41:15;13.20;;;8.50;;
70927;SDS011;58587;53.034;18.576;2023-09-12T12:43:41;10.90;;;8.00;;
70927;SDS011;58587;53.034;18.576;2023-09-12T12:46:11;9.32;;;8.00;;
70927;SDS011;58587;53.034;18.576;2023-09-12T12:48:37;9.30;;;8.10;;
70927;SDS011;58587;53.034;18.576;2023-09-12T12:53:52;9.13;;;7.97;;
70927;SDS011;58587;53.034;18.576;2023-09-12T12:56:28;11.40;;;8.55;;
70927;SDS011;58587;53.034;18.576;2023-09-12T12:58:55;10.40;;;9.18;;
70927;SDS011;58587;53.034;18.576;2023-09-12T13:01:22;10.20;;;8.30;;
70927;SDS011;58587;53.034;18.576;2023-09-12T13:03:47;9.70;;;8.70;;
70927;SDS011;58587;53.034;18.576;2023-09-12T13:06:15;11.75;;;9.77;;
70927;SDS011;58587;53.034;18.576;2023-09-12T13:08:42;12.65;;;8.80;;
70927;SDS011;58587;53.034;18.576;2023-09-12T13:11:12;10.25;;;9.05;;
70927;SDS011;58587;53.034;18.576;2023-09-12T13:13:38;11.93;;;9.50;;
70927;SDS011;58587;53.034;18.576;2023-09-12T13:16:05;11.52;;;9.65;;
70927;SDS011;58587;53.034;18.576;2023-09-12T13:18:32;10.05;;;9.05;;
70927;SDS011;58587;53.034;18.576;2023-09-12T13:20:58;10.13;;;9.13;;
70927;SDS011;58587;53.034;18.576;2023-09-12T13:23:24;10.37;;;9.17;;
70927;SDS011;58587;53.034;18.576;2023-09-12T13:25:50;10.05;;;8.93;;
70927;SDS011;58587;53.034;18.576;2023-09-12T13:28:15;10.27;;;8.97;;
70927;SDS011;58587;53.034;18.576;2023-09-12T13:30:41;10.55;;;9.07;;
70927;SDS011;58587;53.034;18.576;2023-09-12T13:33:06;11.97;;;9.30;;
70927;SDS011;58587;53.034;18.576;2023-09-12T13:35:31;12.70;;;10.07;;
70927;SDS011;58587;53.034;18.576;2023-09-12T13:37:57;10.33;;;9.23;;
70927;SDS011;58587;53.034;18.576;2023-09-12T13:40:22;10.73;;;9.73;;
70927;SDS011;58587;53.034;18.576;2023-09-12T13:42:48;11.35;;;9.55;;
70927;SDS011;58587;53.034;18.576;2023-09-12T13:45:13;10.67;;;9.57;;
70927;SDS011;58587;53.034;18.576;2023-09-12T13:47:38;11.83;;;9.67;;
70927;SDS011;58587;53.034;18.576;2023-09-12T13:50:04;10.00;;;9.10;;
70927;SDS011;58587;53.034;18.576;2023-09-12T13:52:30;10.70;;;9.25;;
70927;SDS011;58587;53.034;18.576;2023-09-12T13:54:55;10.80;;;8.60;;
70927;SDS011;58587;53.034;18.576;2023-09-12T13:57:21;12.43;;;9.27;;
70927;SDS011;58587;53.034;18.576;2023-09-12T13:59:46;9.77;;;8.87;;
70927;SDS011;58587;53.034;18.576;2023-09-12T14:02:11;12.77;;;9.60;;
70927;SDS011;58587;53.034;18.576;2023-09-12T14:04:37;10.60;;;9.40;;
70927;SDS011;58587;53.034;18.576;2023-09-12T14:07:02;10.07;;;9.20;;
70927;SDS011;58587;53.034;18.576;2023-09-12T14:09:28;11.00;;;10.00;;
70927;SDS011;58587;53.034;18.576;2023-09-12T14:11:53;10.47;;;9.30;;
70927;SDS011;58587;53.034;18.576;2023-09-12T14:14:18;12.20;;;10.23;;
70927;SDS011;58587;53.034;18.576;2023-09-12T14:16:44;10.83;;;9.83;;
70927;SDS011;58587;53.034;18.576;2023-09-12T14:19:10;11.00;;;9.95;;
70927;SDS011;58587;53.034;18.576;2023-09-12T14:21:36;10.65;;;9.45;;
70927;SDS011;58587;53.034;18.576;2023-09-12T14:24:01;9.93;;;9.07;;
70927;SDS011;58587;53.034;18.576;2023-09-12T14:26:27;10.43;;;9.27;;